Terminal Aerodrome Forecast
Issued by NWS Charleston, WV

Current Version | Previous Version | Text Only | Print | Product List | Glossary Off
Versions: 1 2 3 4 5 6 7 8 9 10 11 12 13 14 15 16 17 18 19 20 21 22 23 24 25 26 27 28 29 30 31

175
FTUS41 KRLX 281730
TAFHTS
TAF
KHTS 281730Z 2818/2918 15007KT P6SM SKC
      TEMPO 2818/2821 20012G18KT
     FM282100 27004KT P6SM BKN080
     FM290100 33004KT P6SM OVC070
      TEMPO 2902/2903 4SM -SHRA OVC040
     FM290300 VRB03KT 6SM -SHRA BKN070
     FM290500 00000KT P6SM BKN070
     FM291600 00000KT P6SM BKN070=

USA.gov is the U.S. government's official web portal to all federal, state and local government web resources and services.